createdAt,value
2022-10-13T00:00:15.553Z,100
2022-10-13T00:01:17.035Z,100
2022-10-13T00:02:15.060Z,100
2022-10-13T00:03:15.329Z,100
2022-10-13T00:04:15.097Z,100
2022-10-13T00:05:15.358Z,100
2022-10-13T00:06:16.368Z,100
2022-10-13T00:07:15.242Z,100
2022-10-13T00:08:16.905Z,100
2022-10-13T00:09:15.192Z,100
2022-10-13T00:10:15.227Z,100
2022-10-13T00:11:16.974Z,100
2022-10-13T00:12:15.575Z,100
2022-10-13T00:13:15.270Z,100
2022-10-13T00:14:15.244Z,100
2022-10-13T00:15:15.495Z,100
2022-10-13T00:16:17.218Z,100
2022-10-13T00:17:15.296Z,100
2022-10-13T00:18:16.382Z,100
2022-10-13T00:19:15.352Z,100
2022-10-13T00:20:15.332Z,100
2022-10-13T00:21:16.978Z,100
2022-10-13T00:22:15.725Z,100
2022-10-13T00:23:16.045Z,100
2022-10-13T00:24:15.409Z,100
2022-10-13T00:25:15.440Z,100
2022-10-13T00:26:16.190Z,100
2022-10-13T00:27:15.458Z,100
2022-10-13T00:28:17.339Z,100
2022-10-13T00:29:15.477Z,100
2022-10-13T00:30:15.505Z,100
2022-10-13T00:32:18.501Z,100
2022-10-13T00:33:17.513Z,100
2022-10-13T00:34:17.534Z,100
2022-10-13T00:35:17.544Z,100
2022-10-13T00:36:17.553Z,100
2022-10-13T00:37:17.606Z,100
2022-10-13T00:38:19.275Z,100
2022-10-13T00:39:17.599Z,100
2022-10-13T00:40:17.642Z,100
2022-10-13T00:41:17.644Z,100
2022-10-13T00:42:17.964Z,100
2022-10-13T00:43:18.639Z,100
2022-10-13T00:45:26.659Z,100
2022-10-13T00:46:24.647Z,100
2022-10-13T00:47:24.312Z,100
2022-10-13T00:48:29.226Z,100
2022-10-13T00:49:26.066Z,100
2022-10-13T00:50:29.709Z,100
2022-10-13T00:51:28.996Z,100
2022-10-13T00:52:26.797Z,100
2022-10-13T00:53:30.367Z,100
2022-10-13T00:54:27.232Z,100
2022-10-13T00:55:29.382Z,100
2022-10-13T00:56:27.813Z,100
2022-10-13T00:57:27.343Z,100
2022-10-13T00:58:28.582Z,100
2022-10-13T00:59:27.677Z,100
2022-10-13T01:00:27.536Z,100
2022-10-13T01:01:27.630Z,100
2022-10-13T01:02:30.358Z,100
2022-10-13T01:03:27.388Z,100
2022-10-13T01:04:29.365Z,100
2022-10-13T01:05:27.343Z,100
2022-10-13T01:06:27.546Z,100
2022-10-13T01:07:27.638Z,100
2022-10-13T01:08:28.761Z,100
2022-10-13T01:09:27.356Z,100
2022-10-13T01:13:41.896Z,100
2022-10-13T01:30:19.115Z,100
2022-10-13T01:34:30.268Z,100
2022-10-13T01:39:40.248Z,100
2022-10-13T01:41:44.183Z,100
2022-10-13T01:43:47.750Z,100
2022-10-13T01:44:49.030Z,100
2022-10-13T01:45:51.555Z,100
2022-10-13T01:46:50.553Z,100
2022-10-13T01:47:49.006Z,100
2022-10-13T01:48:50.232Z,100
2022-10-13T01:49:50.390Z,100
2022-10-13T01:50:48.740Z,100
2022-10-13T01:51:49.238Z,100
2022-10-13T01:52:49.550Z,100
2022-10-13T01:53:48.959Z,100
2022-10-13T01:54:50.312Z,100
2022-10-13T01:55:52.794Z,100
2022-10-13T01:56:52.941Z,100
2022-10-13T01:57:49.631Z,100
2022-10-13T01:58:50.747Z,100
2022-10-13T01:59:49.704Z,100
2022-10-13T02:01:00.598Z,100
2022-10-13T02:07:14.508Z,100
2022-10-13T02:08:17.022Z,100
2022-10-13T02:11:21.822Z,100
2022-10-13T02:13:24.807Z,100
2022-10-13T02:14:25.393Z,100
2022-10-13T02:15:27.774Z,100
2022-10-13T02:16:25.119Z,100
2022-10-13T02:17:24.610Z,100
2022-10-13T02:18:27.580Z,100
2022-10-13T02:19:24.631Z,100
2022-10-13T02:20:24.038Z,100
2022-10-13T02:21:24.218Z,100
2022-10-13T02:22:26.931Z,100
2022-10-13T02:23:24.266Z,100
2022-10-13T02:24:24.314Z,100
2022-10-13T02:25:24.771Z,100
2022-10-13T02:26:24.669Z,100
2022-10-13T02:27:24.286Z,100
2022-10-13T02:28:24.811Z,100
2022-10-13T02:29:24.736Z,100
2022-10-13T02:30:25.732Z,100
2022-10-13T02:31:24.424Z,100
2022-10-13T02:32:24.427Z,100
2022-10-13T02:33:24.234Z,100
2022-10-13T02:34:24.263Z,100
2022-10-13T02:35:24.302Z,100
2022-10-13T02:36:24.273Z,100
2022-10-13T02:37:24.297Z,100
2022-10-13T02:38:24.302Z,100
2022-10-13T02:39:24.338Z,100
2022-10-13T02:40:24.854Z,100
2022-10-13T02:41:24.360Z,100
2022-10-13T02:42:24.579Z,100
2022-10-13T02:43:24.415Z,100
2022-10-13T02:44:24.585Z,100
2022-10-13T02:45:24.443Z,100
2022-10-13T02:46:24.632Z,100
2022-10-13T02:47:24.474Z,100
2022-10-13T02:48:24.485Z,100
2022-10-13T02:49:24.484Z,100
2022-10-13T02:50:24.516Z,100
2022-10-13T02:51:24.731Z,100
2022-10-13T02:52:24.760Z,100
2022-10-13T02:53:24.572Z,100
2022-10-13T02:54:24.559Z,100
2022-10-13T02:55:24.779Z,100
2022-10-13T02:56:24.658Z,100
2022-10-13T02:57:24.616Z,100
2022-10-13T02:58:24.647Z,100
2022-10-13T02:59:24.638Z,100
2022-10-13T03:00:24.902Z,100
2022-10-13T03:01:24.738Z,100
2022-10-13T03:02:25.943Z,100
2022-10-13T03:03:24.703Z,100
2022-10-13T03:04:24.927Z,100
2022-10-13T03:05:24.754Z,100
2022-10-13T03:06:24.817Z,100
2022-10-13T03:07:24.785Z,100
2022-10-13T03:08:24.997Z,100
2022-10-13T03:09:24.848Z,100
2022-10-13T03:10:24.828Z,100
2022-10-13T03:11:25.252Z,100
2022-10-13T03:12:24.919Z,100
2022-10-13T03:13:25.103Z,100
2022-10-13T03:14:24.889Z,100
2022-10-13T03:15:24.931Z,100
2022-10-13T03:16:25.322Z,100
2022-10-13T03:17:25.118Z,100
2022-10-13T03:18:25.132Z,100
2022-10-13T03:19:25.208Z,100
2022-10-13T03:20:24.978Z,100
2022-10-13T03:21:25.165Z,100
2022-10-13T03:22:25.211Z,100
2022-10-13T03:23:25.266Z,100
2022-10-13T03:24:25.025Z,100
2022-10-13T03:25:25.084Z,100
2022-10-13T03:26:25.067Z,100
2022-10-13T03:27:25.112Z,100
2022-10-13T03:28:25.298Z,100
2022-10-13T03:29:25.191Z,100
2022-10-13T03:30:25.197Z,100
2022-10-13T03:31:25.121Z,100
2022-10-13T03:32:25.192Z,100
2022-10-13T03:33:25.172Z,100
2022-10-13T03:34:25.207Z,100
2022-10-13T03:35:25.237Z,100
2022-10-13T03:36:25.214Z,100
2022-10-13T03:37:25.294Z,100
2022-10-13T03:38:25.247Z,100
2022-10-13T03:39:25.310Z,100
2022-10-13T03:40:25.628Z,100
2022-10-13T03:41:25.300Z,100
2022-10-13T03:42:25.340Z,100
2022-10-13T03:43:25.325Z,100
2022-10-13T03:44:25.545Z,100
2022-10-13T03:45:25.382Z,100
2022-10-13T03:46:27.424Z,100
2022-10-13T03:47:25.383Z,100
2022-10-13T03:48:25.536Z,100
2022-10-13T03:49:25.426Z,100
2022-10-13T03:50:25.709Z,100
2022-10-13T03:51:25.478Z,100
2022-10-13T03:52:25.520Z,100
2022-10-13T03:53:26.093Z,100
2022-10-13T03:54:25.680Z,100
2022-10-13T03:55:25.554Z,100
2022-10-13T03:56:26.249Z,100
2022-10-13T03:57:25.566Z,100
2022-10-13T03:58:25.568Z,100
2022-10-13T03:59:25.881Z,100
2022-10-13T04:00:25.595Z,100
2022-10-13T04:01:27.078Z,100
2022-10-13T04:02:25.858Z,100
2022-10-13T04:03:25.847Z,100
2022-10-13T04:04:25.707Z,100
2022-10-13T04:05:25.692Z,100
2022-10-13T04:06:26.081Z,100
2022-10-13T04:07:25.697Z,100
2022-10-13T04:08:25.759Z,100
2022-10-13T04:09:26.132Z,100
2022-10-13T04:10:26.005Z,100
2022-10-13T04:11:25.800Z,100
2022-10-13T04:12:26.249Z,100
2022-10-13T04:13:25.824Z,100
2022-10-13T04:14:25.867Z,100
2022-10-13T04:15:25.846Z,100
2022-10-13T04:16:27.677Z,100
2022-10-13T04:17:25.853Z,100
2022-10-13T04:18:25.901Z,100
2022-10-13T04:19:26.285Z,100
2022-10-13T04:20:25.923Z,100
2022-10-13T04:21:26.374Z,100
2022-10-13T04:22:25.950Z,100
2022-10-13T04:23:26.010Z,100
2022-10-13T04:24:26.041Z,100
2022-10-13T04:25:25.996Z,100
2022-10-13T04:26:27.223Z,100
2022-10-13T04:27:26.026Z,100
2022-10-13T04:28:26.088Z,100
2022-10-13T04:29:26.052Z,100
2022-10-13T04:30:26.191Z,100
2022-10-13T04:31:27.987Z,100
2022-10-13T04:32:26.142Z,100
2022-10-13T04:33:26.126Z,100
2022-10-13T04:34:26.143Z,100
2022-10-13T04:35:26.195Z,100
2022-10-13T04:36:26.488Z,100
2022-10-13T04:37:26.188Z,100
2022-10-13T04:38:26.212Z,100
2022-10-13T04:39:26.223Z,100
2022-10-13T04:40:26.649Z,100
2022-10-13T04:41:26.322Z,100
2022-10-13T04:42:26.272Z,100
2022-10-13T04:43:26.283Z,100
2022-10-13T04:44:26.313Z,100
2022-10-13T04:45:26.766Z,100
2022-10-13T04:46:26.792Z,100
2022-10-13T04:47:26.341Z,100
2022-10-13T04:48:26.392Z,100
2022-10-13T04:49:26.875Z,100
2022-10-13T04:50:26.699Z,100
2022-10-13T04:51:26.432Z,100
2022-10-13T04:52:26.477Z,100
2022-10-13T04:53:26.906Z,100
2022-10-13T04:54:26.472Z,100
2022-10-13T04:55:27.079Z,100
2022-10-13T04:56:26.962Z,100
2022-10-13T04:57:26.517Z,100
2022-10-13T04:58:26.751Z,100
2022-10-13T04:59:26.809Z,100
2022-10-13T05:00:26.686Z,100
2022-10-13T05:01:26.654Z,100
2022-10-13T05:02:26.597Z,100
2022-10-13T05:03:26.600Z,100
2022-10-13T05:04:26.645Z,100
2022-10-13T05:05:26.678Z,100
2022-10-13T05:06:28.153Z,100
2022-10-13T05:07:26.691Z,100
2022-10-13T05:08:26.677Z,100
2022-10-13T05:09:26.788Z,100
2022-10-13T05:10:29.233Z,100
2022-10-13T05:11:29.353Z,100
2022-10-13T05:12:28.889Z,100
2022-10-13T05:13:29.393Z,100
2022-10-13T05:14:29.109Z,100
2022-10-13T05:15:28.945Z,100
2022-10-13T05:16:28.975Z,100
2022-10-13T05:17:34.151Z,100
2022-10-13T05:18:31.478Z,100
2022-10-13T05:19:31.719Z,100
2022-10-13T05:20:31.510Z,100
2022-10-13T05:21:31.506Z,100
2022-10-13T05:22:31.612Z,100
2022-10-13T05:23:32.133Z,100
2022-10-13T05:24:31.931Z,100
2022-10-13T05:25:33.947Z,100
2022-10-13T05:26:34.853Z,100
2022-10-13T05:27:31.607Z,100
2022-10-13T05:28:31.930Z,100
2022-10-13T05:29:31.666Z,100
2022-10-13T05:30:32.273Z,100
2022-10-13T05:31:32.669Z,100
2022-10-13T05:32:31.678Z,100
2022-10-13T05:33:31.900Z,100
2022-10-13T05:34:32.095Z,100
2022-10-13T05:35:31.741Z,100
2022-10-13T05:36:33.345Z,100
2022-10-13T05:37:31.780Z,100
2022-10-13T05:38:31.997Z,100
2022-10-13T05:39:31.804Z,100
2022-10-13T05:40:31.877Z,100
2022-10-13T05:41:32.080Z,100
2022-10-13T05:42:31.852Z,100
2022-10-13T05:43:32.708Z,100
2022-10-13T05:44:31.999Z,100
2022-10-13T05:45:32.890Z,100
2022-10-13T05:46:32.070Z,100
2022-10-13T05:47:31.959Z,100
2022-10-13T05:48:31.964Z,100
2022-10-13T05:49:32.272Z,100
2022-10-13T05:50:31.972Z,100
2022-10-13T05:51:33.812Z,100
2022-10-13T05:52:33.086Z,100
2022-10-13T05:53:34.706Z,100
2022-10-13T05:55:34.852Z,100
2022-10-13T05:56:38.092Z,100
2022-10-13T05:57:37.206Z,100
2022-10-13T05:58:37.558Z,100
2022-10-13T05:59:37.283Z,100
2022-10-13T06:00:35.478Z,100
2022-10-13T06:01:37.039Z,100
2022-10-13T06:02:38.573Z,100
2022-10-13T06:03:35.584Z,100
2022-10-13T06:04:39.705Z,100
2022-10-13T06:05:35.952Z,100
2022-10-13T06:06:36.104Z,100
2022-10-13T06:07:36.576Z,100
2022-10-13T06:08:36.881Z,100
2022-10-13T06:09:37.552Z,100
2022-10-13T06:10:39.536Z,100
2022-10-13T06:11:36.016Z,100
2022-10-13T06:12:36.034Z,100
2022-10-13T06:13:36.036Z,100
2022-10-13T06:14:36.914Z,100
2022-10-13T06:15:36.085Z,100
2022-10-13T06:16:36.337Z,100
2022-10-13T06:17:36.907Z,100
2022-10-13T06:18:36.148Z,100
2022-10-13T06:19:36.429Z,100
2022-10-13T06:20:36.411Z,100
2022-10-13T06:21:36.206Z,100
2022-10-13T06:22:36.748Z,100
2022-10-13T06:23:36.213Z,100
2022-10-13T06:24:36.241Z,100
2022-10-13T06:25:36.241Z,100
2022-10-13T06:26:36.266Z,100
2022-10-13T06:27:36.526Z,100
2022-10-13T06:28:36.624Z,100
2022-10-13T06:29:36.319Z,100
2022-10-13T06:30:37.702Z,100
2022-10-13T06:31:36.368Z,100
2022-10-13T06:32:36.377Z,100
2022-10-13T06:33:36.399Z,100
2022-10-13T06:34:36.581Z,100
2022-10-13T06:35:36.401Z,100
2022-10-13T06:36:36.411Z,100
2022-10-13T06:37:36.458Z,100
2022-10-13T06:38:36.700Z,100
2022-10-13T06:39:36.525Z,100
2022-10-13T06:40:36.502Z,100
2022-10-13T06:41:36.547Z,100
2022-10-13T06:42:36.508Z,100
2022-10-13T06:43:40.335Z,100
2022-10-13T06:44:37.561Z,100
2022-10-13T06:45:36.968Z,100
2022-10-13T06:46:36.986Z,100
2022-10-13T06:47:37.028Z,100
2022-10-13T06:48:37.036Z,100
2022-10-13T06:49:37.087Z,100
2022-10-13T06:50:42.059Z,100
2022-10-13T06:51:39.269Z,100
2022-10-13T06:52:39.497Z,100
2022-10-13T06:53:39.252Z,100
2022-10-13T06:54:39.252Z,100
2022-10-13T06:55:39.263Z,100
2022-10-13T06:56:39.312Z,100
2022-10-13T06:57:39.324Z,100
2022-10-13T06:58:39.308Z,100
2022-10-13T06:59:39.281Z,100
2022-10-13T07:00:40.444Z,100
2022-10-13T07:01:41.717Z,100
2022-10-13T07:02:39.352Z,100
2022-10-13T07:03:39.370Z,100
2022-10-13T07:04:39.431Z,100
2022-10-13T07:05:39.400Z,100
2022-10-13T07:06:39.657Z,100
2022-10-13T07:07:39.428Z,100
2022-10-13T07:08:39.461Z,100
2022-10-13T07:09:39.463Z,100
2022-10-13T07:10:39.811Z,100
2022-10-13T07:11:39.760Z,100
2022-10-13T07:12:39.488Z,100
2022-10-13T07:13:43.590Z,100
2022-10-13T07:14:43.849Z,100
2022-10-13T07:15:42.718Z,100
2022-10-13T07:16:43.047Z,100
2022-10-13T07:17:42.790Z,100
2022-10-13T07:18:42.793Z,100
2022-10-13T07:19:42.897Z,100
2022-10-13T07:20:42.802Z,100
2022-10-13T07:21:43.045Z,100
2022-10-13T07:22:43.158Z,100
2022-10-13T07:23:42.859Z,100
2022-10-13T07:24:43.065Z,100
2022-10-13T07:25:42.888Z,100
2022-10-13T07:26:42.950Z,100
2022-10-13T07:27:42.928Z,100
2022-10-13T07:28:43.886Z,100
2022-10-13T07:29:42.936Z,100
2022-10-13T07:30:42.981Z,100
2022-10-13T07:31:43.947Z,100
2022-10-13T07:32:42.982Z,100
2022-10-13T07:33:44.078Z,100
2022-10-13T07:34:43.021Z,100
2022-10-13T07:35:43.426Z,100
2022-10-13T07:36:43.336Z,100
2022-10-13T07:37:43.399Z,100
2022-10-13T07:38:43.127Z,100
2022-10-13T07:39:43.122Z,100
2022-10-13T07:40:43.079Z,100
2022-10-13T07:41:46.359Z,100
2022-10-13T07:42:44.976Z,100
2022-10-13T07:43:45.018Z,100
2022-10-13T07:44:44.996Z,100
2022-10-13T07:45:44.978Z,100
2022-10-13T07:46:44.998Z,100
2022-10-13T07:47:45.245Z,100
2022-10-13T07:48:45.028Z,100
2022-10-13T07:49:45.021Z,100
2022-10-13T07:50:45.095Z,100
2022-10-13T07:51:45.061Z,100
2022-10-13T07:52:45.105Z,100
2022-10-13T07:53:45.072Z,100
2022-10-13T07:54:45.112Z,100
2022-10-13T07:55:45.102Z,100
2022-10-13T07:56:45.176Z,100
2022-10-13T07:57:45.433Z,100
2022-10-13T07:58:46.173Z,100
2022-10-13T07:59:45.159Z,100
2022-10-13T08:00:45.202Z,100
2022-10-13T08:01:45.283Z,100
2022-10-13T08:02:48.897Z,100
2022-10-13T08:03:49.090Z,100
2022-10-13T08:04:47.001Z,100
2022-10-13T08:05:46.949Z,100
2022-10-13T08:06:46.941Z,100
2022-10-13T08:07:46.934Z,100
2022-10-13T08:08:47.009Z,100
2022-10-13T08:09:47.008Z,100
2022-10-13T08:10:47.089Z,100
2022-10-13T08:11:46.986Z,100
2022-10-13T08:12:47.361Z,100
2022-10-13T08:13:50.640Z,100
2022-10-13T08:14:49.960Z,100
2022-10-13T08:15:47.130Z,100
2022-10-13T08:16:49.922Z,100
2022-10-13T08:17:49.436Z,100
2022-10-13T08:18:49.382Z,100
2022-10-13T08:19:50.607Z,100
2022-10-13T08:20:49.387Z,100
2022-10-13T08:21:58.666Z,100
2022-10-13T08:22:50.647Z,100
2022-10-13T08:23:50.656Z,100
2022-10-13T08:24:50.723Z,100
2022-10-13T08:25:50.865Z,100
2022-10-13T08:26:51.119Z,100
2022-10-13T08:27:52.025Z,100
2022-10-13T08:29:09.626Z,100
2022-10-13T08:29:52.407Z,100
2022-10-13T08:30:52.659Z,100
2022-10-13T08:31:53.442Z,100
2022-10-13T08:32:52.307Z,100
2022-10-13T08:33:52.326Z,100
2022-10-13T08:34:52.439Z,100
2022-10-13T08:35:52.592Z,100
2022-10-13T08:36:53.677Z,100
2022-10-13T08:37:52.427Z,100
2022-10-13T08:38:52.401Z,100
2022-10-13T08:39:55.129Z,100
2022-10-13T08:40:52.606Z,100
2022-10-13T08:41:52.875Z,99.59
2022-10-13T08:42:55.559Z,99.51
2022-10-13T08:45:28.389Z,99.06
2022-10-13T08:46:01.220Z,98.55
2022-10-13T08:49:08.383Z,97.92
2022-10-13T08:50:13.721Z,97.61
2022-10-13T08:51:12.365Z,97.06
2022-10-13T08:52:15.416Z,96.66
2022-10-13T08:54:16.557Z,96.18
2022-10-13T08:57:23.318Z,96.35
2022-10-13T08:58:28.172Z,95.79
2022-10-13T08:59:24.569Z,95.09
2022-10-13T09:00:24.397Z,95.77
2022-10-13T09:01:27.938Z,95.76
2022-10-13T09:02:31.182Z,94.65
2022-10-13T09:03:29.096Z,94.62
2022-10-13T09:04:29.647Z,94.19
2022-10-13T09:05:36.305Z,93.93
2022-10-13T09:06:31.958Z,94.48
2022-10-13T09:07:29.160Z,94.34
2022-10-13T09:08:31.801Z,93.75
2022-10-13T09:09:28.240Z,94.12
2022-10-13T09:10:28.181Z,93.93
2022-10-13T09:11:33.702Z,94.36
2022-10-13T09:12:29.890Z,94.25
2022-10-13T09:13:29.941Z,94.96
2022-10-13T09:14:31.991Z,93.37
2022-10-13T09:15:29.950Z,93.03
2022-10-13T09:16:34.245Z,93.11
2022-10-13T09:17:31.479Z,93.15
2022-10-13T09:18:31.470Z,93.29
2022-10-13T09:19:32.705Z,94.28
2022-10-13T09:20:30.719Z,93.75
2022-10-13T09:21:30.488Z,94.05
2022-10-13T09:22:35.084Z,93.76
2022-10-13T09:23:31.278Z,93.5
2022-10-13T09:24:31.329Z,92.75
2022-10-13T09:25:39.911Z,92
2022-10-13T09:26:39.159Z,91.56
2022-10-13T09:27:43.764Z,91.79
2022-10-13T09:28:40.189Z,92.79
2022-10-13T09:29:40.751Z,92.18
2022-10-13T09:30:41.738Z,91.78
2022-10-13T09:31:40.221Z,91.28
2022-10-13T09:32:40.349Z,91.57
2022-10-13T09:33:40.641Z,91.11
2022-10-13T09:34:40.230Z,90.56
2022-10-13T09:35:48.167Z,90.97
2022-10-13T09:43:06.681Z,89.93
2022-10-13T09:44:09.940Z,90.23
2022-10-13T09:45:16.516Z,90.55
2022-10-13T09:46:20.837Z,90.3
2022-10-13T09:47:20.418Z,91.15
2022-10-13T09:48:20.986Z,91.16
2022-10-13T09:52:26.603Z,90.05
2022-10-13T09:53:32.451Z,89.87
2022-10-13T09:55:34.074Z,90.06
2022-10-13T09:58:37.472Z,89.87
2022-10-13T09:59:40.898Z,89.41
2022-10-13T10:00:37.833Z,89.28
2022-10-13T10:01:39.733Z,88.85
2022-10-13T10:02:41.517Z,89.96
2022-10-13T10:03:38.324Z,90.45
2022-10-13T10:04:40.820Z,89.9
2022-10-13T10:06:43.703Z,88.55
2022-10-13T10:07:42.698Z,89.62
2022-10-13T10:10:48.767Z,91.34
2022-10-13T10:11:49.994Z,91.05
2022-10-13T10:12:48.797Z,90.18
2022-10-13T10:13:48.825Z,90.57
2022-10-13T10:14:49.167Z,92.16
2022-10-13T10:15:58.500Z,90.27
2022-10-13T10:16:52.985Z,91.08
2022-10-13T10:17:58.755Z,89.85
2022-10-13T10:18:58.814Z,90.54
2022-10-13T10:23:05.986Z,90.44
2022-10-13T10:26:11.570Z,88.58
2022-10-13T10:29:23.348Z,88.71
2022-10-13T10:30:19.445Z,89.49
2022-10-13T10:33:21.598Z,90.08
2022-10-13T10:38:39.196Z,90.1
2022-10-13T10:39:35.818Z,90.01
2022-10-13T10:41:50.092Z,91
2022-10-13T10:45:42.725Z,91.37
2022-10-13T10:47:44.175Z,91.26
2022-10-13T10:48:43.757Z,91.11
2022-10-13T10:49:42.943Z,91.66
2022-10-13T10:50:42.342Z,92.09
2022-10-13T10:51:42.574Z,92.27
2022-10-13T10:53:56.259Z,91.23
2022-10-13T10:54:55.294Z,90.24
2022-10-13T10:56:00.402Z,90.08
2022-10-13T10:56:54.568Z,89.5
2022-10-13T10:59:02.831Z,88.77
2022-10-13T11:00:01.374Z,88.93
2022-10-13T11:01:04.247Z,87.94
2022-10-13T11:02:10.060Z,86.89
2022-10-13T11:03:07.997Z,86.38
2022-10-13T11:05:08.346Z,85.81
2022-10-13T11:08:26.188Z,84.97
2022-10-13T11:10:20.266Z,83.8
2022-10-13T11:13:24.958Z,80.36
2022-10-13T11:14:27.839Z,81.44
2022-10-13T11:15:27.187Z,80.41
2022-10-13T11:17:31.251Z,82.56
2022-10-13T11:19:38.646Z,82.58
2022-10-13T11:22:40.030Z,80.84
2022-10-13T11:23:44.617Z,82.42
2022-10-13T11:25:43.336Z,77.78
2022-10-13T11:26:42.702Z,77.56
2022-10-13T11:27:42.924Z,78.05
2022-10-13T11:28:45.526Z,77.23
2022-10-13T11:30:52.889Z,79.69
2022-10-13T11:31:54.147Z,79.46
2022-10-13T11:32:50.891Z,79.2
2022-10-13T11:33:55.271Z,78.44
2022-10-13T11:34:58.049Z,80.03
2022-10-13T11:35:54.930Z,80.23
2022-10-13T11:36:55.996Z,79.84
2022-10-13T11:46:36.860Z,74.87
2022-10-13T11:54:54.267Z,74.36
2022-10-13T11:55:48.298Z,73.54
2022-10-13T11:56:48.881Z,75.22
2022-10-13T11:57:45.482Z,74.39
2022-10-13T11:58:45.549Z,74.88
2022-10-13T11:59:47.296Z,75.79
2022-10-13T12:01:54.776Z,76.03
2022-10-13T12:02:52.997Z,77.97
2022-10-13T12:03:51.002Z,77.61
2022-10-13T12:05:56.760Z,77.46
2022-10-13T12:07:02.799Z,78.29
2022-10-13T12:08:03.143Z,78.98
2022-10-13T12:09:07.365Z,78.77
2022-10-13T12:10:06.132Z,76.85
2022-10-13T12:11:04.182Z,76.17
2022-10-13T12:13:05.519Z,74.63
2022-10-13T12:14:07.133Z,73.42
2022-10-13T12:16:07.003Z,73.17
2022-10-13T12:21:16.623Z,72.08
2022-10-13T12:22:15.714Z,72.63
2022-10-13T12:23:16.747Z,72.86
2022-10-13T12:24:15.025Z,73.2
2022-10-13T12:25:16.226Z,73.65
2022-10-13T12:26:16.912Z,74.88
2022-10-13T12:27:21.085Z,74.52
2022-10-13T12:28:18.819Z,75.24
2022-10-13T12:29:19.327Z,75.21
2022-10-13T12:30:25.494Z,74.82
2022-10-13T12:31:26.230Z,74.53
2022-10-13T12:32:29.418Z,75.83
2022-10-13T12:33:34.942Z,75.19
2022-10-13T12:34:27.965Z,72.61
2022-10-13T12:35:30.582Z,72.81
2022-10-13T12:36:31.202Z,72.56
2022-10-13T12:37:29.462Z,72.23
2022-10-13T12:38:27.612Z,72.86
2022-10-13T12:39:29.165Z,72.87
2022-10-13T12:40:28.492Z,73.13
2022-10-13T12:41:29.091Z,73.83
2022-10-13T12:42:30.172Z,74.48
2022-10-13T12:43:27.533Z,73.93
2022-10-13T12:44:30.111Z,73.24
2022-10-13T12:45:31.154Z,73.26
2022-10-13T12:48:36.191Z,72.79
2022-10-13T12:49:33.937Z,72.97
2022-10-13T12:50:36.314Z,73.32
2022-10-13T12:51:32.960Z,73.34
2022-10-13T12:52:33.982Z,74.23
2022-10-13T12:53:32.733Z,72.81
2022-10-13T12:54:33.928Z,71.39
2022-10-13T12:55:33.271Z,70.17
2022-10-13T12:56:33.060Z,70.24
2022-10-13T12:57:37.608Z,71.76
2022-10-13T12:58:34.821Z,70.87
2022-10-13T12:59:33.811Z,70.65
2022-10-13T13:00:33.964Z,71.44
2022-10-13T13:01:34.400Z,72.16
2022-10-13T13:02:34.110Z,71.54
2022-10-13T13:03:35.490Z,72.4
2022-10-13T13:05:36.706Z,72.56
2022-10-13T13:06:36.697Z,72.21
2022-10-13T13:07:36.188Z,72.86
2022-10-13T13:08:34.956Z,72.96
2022-10-13T13:09:35.911Z,73.6
2022-10-13T13:10:34.990Z,73.96
2022-10-13T13:11:38.877Z,73.99
2022-10-13T13:12:36.053Z,73.7
2022-10-13T13:13:35.124Z,72.95
2022-10-13T13:14:37.102Z,73.5
2022-10-13T13:15:36.223Z,73.28
2022-10-13T13:16:35.135Z,71.95
2022-10-13T13:18:40.373Z,73
2022-10-13T13:19:36.625Z,73.55
2022-10-13T13:20:36.623Z,72.39
2022-10-13T13:21:36.598Z,71.95
2022-10-13T13:23:36.679Z,70.88
2022-10-13T13:24:40.282Z,70.64
2022-10-13T13:25:37.058Z,70.76
2022-10-13T13:26:37.050Z,71.39
2022-10-13T13:27:39.287Z,72.21
2022-10-13T13:29:37.111Z,73.31
2022-10-13T13:30:37.150Z,74.35
2022-10-13T13:31:37.175Z,74.13
2022-10-13T13:32:37.180Z,73.6
2022-10-13T13:33:37.262Z,74.23
2022-10-13T13:34:37.219Z,76.47
2022-10-13T13:35:37.628Z,75.86
2022-10-13T13:36:37.258Z,75.78
2022-10-13T13:37:38.418Z,73.67
2022-10-13T13:38:37.295Z,72.46
2022-10-13T13:39:37.280Z,72.9
2022-10-13T13:40:37.311Z,73.85
2022-10-13T13:41:37.344Z,73.74
2022-10-13T13:42:37.367Z,73.49
2022-10-13T13:43:37.577Z,73.51
2022-10-13T13:44:37.367Z,73.04
2022-10-13T13:45:37.434Z,73.37
2022-10-13T13:46:37.435Z,73.37
2022-10-13T13:47:37.511Z,72.5
2022-10-13T13:48:37.608Z,73.47
2022-10-13T13:49:37.450Z,74.63
2022-10-13T13:50:37.966Z,75.57
2022-10-13T13:51:37.493Z,75.79
2022-10-13T13:52:37.496Z,75.67
2022-10-13T13:53:37.520Z,75.63
2022-10-13T13:54:37.522Z,75.62
2022-10-13T13:55:37.746Z,75.72
2022-10-13T13:56:37.621Z,75.33
2022-10-13T13:57:37.590Z,75.58
2022-10-13T13:58:37.610Z,75.97
2022-10-13T13:59:38.096Z,76.77
2022-10-13T14:00:37.653Z,76.48
2022-10-13T14:01:37.937Z,76.39
2022-10-13T14:02:37.889Z,76.5
2022-10-13T14:03:37.689Z,76.96
2022-10-13T14:04:37.748Z,76.62
2022-10-13T14:05:40.698Z,77.27
2022-10-13T14:06:37.775Z,76.61
2022-10-13T14:07:38.162Z,75.46
2022-10-13T14:09:37.778Z,77.52
2022-10-13T14:10:39.493Z,78.26
2022-10-13T14:11:37.906Z,78.73
2022-10-13T14:12:38.078Z,78.3
2022-10-13T14:13:37.857Z,78.82
2022-10-13T14:14:37.876Z,80
2022-10-13T14:15:37.888Z,79.56
2022-10-13T14:16:37.928Z,79.25
2022-10-13T14:17:38.104Z,80.26
2022-10-13T14:18:37.932Z,80.81
2022-10-13T14:19:37.937Z,81.63
2022-10-13T14:20:40.201Z,81.7
2022-10-13T14:21:38.317Z,80.75
2022-10-13T14:22:38.749Z,80.25
2022-10-13T14:23:38.051Z,81.01
2022-10-13T14:24:38.080Z,81.34
2022-10-13T14:25:38.468Z,81.33
2022-10-13T14:26:38.158Z,81.97
2022-10-13T14:27:38.086Z,81.85
2022-10-13T14:28:40.275Z,81.81
2022-10-13T14:29:38.209Z,80.82
2022-10-13T14:30:41.474Z,80.75
2022-10-13T14:31:38.243Z,79.34
2022-10-13T14:32:38.159Z,79.41
2022-10-13T14:33:38.207Z,79.78
2022-10-13T14:34:38.230Z,79.92
2022-10-13T14:35:38.228Z,80.3
2022-10-13T14:36:38.258Z,81.5
2022-10-13T14:37:38.736Z,81.84
2022-10-13T14:38:38.264Z,81.87
2022-10-13T14:39:38.441Z,82.32
2022-10-13T14:40:41.432Z,82.25
2022-10-13T14:41:38.316Z,81.96
2022-10-13T14:42:38.367Z,81.82
2022-10-13T14:43:38.370Z,81.98
2022-10-13T14:44:38.378Z,82.53
2022-10-13T14:45:38.404Z,82.45
2022-10-13T14:46:38.418Z,82.83
2022-10-13T14:47:38.661Z,82.95
2022-10-13T14:48:38.704Z,83.12
2022-10-13T14:49:38.449Z,83.73
2022-10-13T14:50:38.506Z,84.03
2022-10-13T14:51:38.844Z,83.96
2022-10-13T14:52:38.561Z,83.99
2022-10-13T14:53:40.202Z,84.25
2022-10-13T14:54:42.466Z,84.18
2022-10-13T14:55:41.736Z,84.39
2022-10-13T14:56:41.336Z,84.66
2022-10-13T14:57:41.130Z,84.93
2022-10-13T14:58:41.194Z,85.36
2022-10-13T14:59:41.456Z,85.87
2022-10-13T15:00:42.672Z,86.76
2022-10-13T15:01:41.838Z,87.36
2022-10-13T15:02:41.463Z,88.15
2022-10-13T15:03:41.777Z,88.38
2022-10-13T15:04:41.313Z,88.72
2022-10-13T15:05:41.253Z,89.22
2022-10-13T15:06:41.327Z,89.35
2022-10-13T15:07:41.614Z,89.28
2022-10-13T15:08:41.342Z,89.39
2022-10-13T15:10:09.500Z,89.49
2022-10-13T15:10:42.521Z,89.73
2022-10-13T15:11:42.509Z,89.92
2022-10-13T15:12:42.619Z,90.31
2022-10-13T15:13:42.585Z,90.36
2022-10-13T15:14:42.605Z,90.7
2022-10-13T15:15:45.970Z,91.16
2022-10-13T15:16:42.610Z,91.49
2022-10-13T15:17:42.619Z,91.58
2022-10-13T15:18:43.018Z,91.72
2022-10-13T15:19:42.651Z,91.9
2022-10-13T15:21:44.748Z,92.32
2022-10-13T15:22:46.561Z,92.22
2022-10-13T15:23:45.015Z,92.2
2022-10-13T15:24:44.772Z,92.31
2022-10-13T15:26:49.104Z,92.72
2022-10-13T15:27:49.179Z,93.19
2022-10-13T15:28:50.016Z,93.26
2022-10-13T15:29:49.241Z,93.4
2022-10-13T15:30:49.491Z,93.49
2022-10-13T15:31:49.196Z,93.73
2022-10-13T15:32:49.340Z,94.08
2022-10-13T15:33:50.691Z,94.34
2022-10-13T15:34:49.314Z,94.5
2022-10-13T15:35:50.096Z,94.69